sensor_id;sensor_type;location;lat;lon;timestamp;temperature;humidity
3756;DHT22;1893;52.526;13.360;2023-03-01T00:00:52;-0.60;99.90
3756;DHT22;1893;52.526;13.360;2023-03-01T00:03:18;-0.60;99.90
3756;DHT22;1893;52.526;13.360;2023-03-01T00:05:45;-0.60;99.90
3756;DHT22;1893;52.526;13.360;2023-03-01T00:08:11;-0.70;99.90
3756;DHT22;1893;52.526;13.360;2023-03-01T00:10:36;-0.70;99.90
3756;DHT22;1893;52.526;13.360;2023-03-01T00:13:02;-0.60;99.90
3756;DHT22;1893;52.526;13.360;2023-03-01T00:15:27;-0.40;99.90
3756;DHT22;1893;52.526;13.360;2023-03-01T00:17:53;-0.60;99.90
3756;DHT22;1893;52.526;13.360;2023-03-01T00:20:19;-0.60;99.90
3756;DHT22;1893;52.526;13.360;2023-03-01T00:22:44;-0.60;99.90
3756;DHT22;1893;52.526;13.360;2023-03-01T00:25:10;-0.60;99.90
3756;DHT22;1893;52.526;13.360;2023-03-01T00:27:35;-0.70;99.90
3756;DHT22;1893;52.526;13.360;2023-03-01T00:30:01;-0.80;99.90
3756;DHT22;1893;52.526;13.360;2023-03-01T00:32:27;-0.70;99.90
3756;DHT22;1893;52.526;13.360;2023-03-01T00:34:52;-0.60;99.90
3756;DHT22;1893;52.526;13.360;2023-03-01T00:37:21;-0.60;99.90
3756;DHT22;1893;52.526;13.360;2023-03-01T00:39:48;-0.70;99.90
3756;DHT22;1893;52.526;13.360;2023-03-01T00:42:14;-0.70;99.90
3756;DHT22;1893;52.526;13.360;2023-03-01T00:44:39;-0.70;99.90
3756;DHT22;1893;52.526;13.360;2023-03-01T00:47:05;-0.70;99.90
3756;DHT22;1893;52.526;13.360;2023-03-01T00:49:31;-0.70;99.90
3756;DHT22;1893;52.526;13.360;2023-03-01T00:51:56;-0.70;99.90
3756;DHT22;1893;52.526;13.360;2023-03-01T00:54:22;-0.80;99.90
3756;DHT22;1893;52.526;13.360;2023-03-01T00:56:48;-0.90;99.90
3756;DHT22;1893;52.526;13.360;2023-03-01T00:59:13;-0.90;99.90
3756;DHT22;1893;52.526;13.360;2023-03-01T01:01:39;-1.00;99.90
3756;DHT22;1893;52.526;13.360;2023-03-01T01:04:10;-0.90;99.90
3756;DHT22;1893;52.526;13.360;2023-03-01T01:06:45;-0.90;99.90
3756;DHT22;1893;52.526;13.360;2023-03-01T01:09:14;-0.80;99.90
3756;DHT22;1893;52.526;13.360;2023-03-01T01:11:46;-0.80;99.90
3756;DHT22;1893;52.526;13.360;2023-03-01T01:14:13;-0.90;99.90
3756;DHT22;1893;52.526;13.360;2023-03-01T01:16:38;-0.80;99.90
3756;DHT22;1893;52.526;13.360;2023-03-01T01:19:05;-0.90;99.90
3756;DHT22;1893;52.526;13.360;2023-03-01T01:21:30;-1.00;99.90
3756;DHT22;1893;52.526;13.360;2023-03-01T01:23:57;-1.00;99.90
3756;DHT22;1893;52.526;13.360;2023-03-01T01:26:26;-1.10;99.90
3756;DHT22;1893;52.526;13.360;2023-03-01T01:28:53;-1.10;99.90
3756;DHT22;1893;52.526;13.360;2023-03-01T01:31:19;-1.00;99.90
3756;DHT22;1893;52.526;13.360;2023-03-01T01:33:45;-0.90;99.90
3756;DHT22;1893;52.526;13.360;2023-03-01T01:36:11;-0.90;99.90
3756;DHT22;1893;52.526;13.360;2023-03-01T01:38:38;-1.00;99.90
3756;DHT22;1893;52.526;13.360;2023-03-01T01:41:05;-1.00;99.90
3756;DHT22;1893;52.526;13.360;2023-03-01T01:43:34;-1.10;99.90
3756;DHT22;1893;52.526;13.360;2023-03-01T01:46:28;-1.20;99.90
3756;DHT22;1893;52.526;13.360;2023-03-01T01:48:59;-1.20;99.90
3756;DHT22;1893;52.526;13.360;2023-03-01T01:51:29;-1.20;99.90
3756;DHT22;1893;52.526;13.360;2023-03-01T01:54:10;-1.20;99.90
3756;DHT22;1893;52.526;13.360;2023-03-01T01:56:37;-1.30;99.90
3756;DHT22;1893;52.526;13.360;2023-03-01T01:59:05;-1.30;99.90
3756;DHT22;1893;52.526;13.360;2023-03-01T02:01:31;-1.40;99.90
3756;DHT22;1893;52.526;13.360;2023-03-01T02:03:57;-1.40;99.90
3756;DHT22;1893;52.526;13.360;2023-03-01T02:06:37;-1.40;99.90
3756;DHT22;1893;52.526;13.360;2023-03-01T02:09:08;-1.50;99.90
3756;DHT22;1893;52.526;13.360;2023-03-01T02:11:37;-1.40;99.90
3756;DHT22;1893;52.526;13.360;2023-03-01T02:14:03;-1.40;99.90
3756;DHT22;1893;52.526;13.360;2023-03-01T02:16:29;-1.40;99.90
3756;DHT22;1893;52.526;13.360;2023-03-01T02:18:57;-1.50;99.90
3756;DHT22;1893;52.526;13.360;2023-03-01T02:23:53;-1.30;99.90
3756;DHT22;1893;52.526;13.360;2023-03-01T02:26:26;-1.20;99.90
3756;DHT22;1893;52.526;13.360;2023-03-01T02:28:55;-1.30;99.90
3756;DHT22;1893;52.526;13.360;2023-03-01T02:31:21;-1.20;99.90
3756;DHT22;1893;52.526;13.360;2023-03-01T02:34:15;-1.30;99.90
3756;DHT22;1893;52.526;13.360;2023-03-01T02:36:48;-1.40;99.90
3756;DHT22;1893;52.526;13.360;2023-03-01T02:39:22;-1.50;99.90
3756;DHT22;1893;52.526;13.360;2023-03-01T02:41:54;-1.50;99.90
3756;DHT22;1893;52.526;13.360;2023-03-01T02:44:22;-1.50;99.90
3756;DHT22;1893;52.526;13.360;2023-03-01T02:46:50;-1.50;99.90
3756;DHT22;1893;52.526;13.360;2023-03-01T02:49:22;-1.40;99.90
3756;DHT22;1893;52.526;13.360;2023-03-01T02:57:31;-1.50;99.90
3756;DHT22;1893;52.526;13.360;2023-03-01T03:00:02;-1.60;99.90
3756;DHT22;1893;52.526;13.360;2023-03-01T03:02:32;-1.50;99.90
3756;DHT22;1893;52.526;13.360;2023-03-01T03:05:03;-1.60;99.90
3756;DHT22;1893;52.526;13.360;2023-03-01T03:07:33;-1.70;99.90
3756;DHT22;1893;52.526;13.360;2023-03-01T03:09:59;-1.70;99.90
3756;DHT22;1893;52.526;13.360;2023-03-01T03:12:25;-1.70;99.90
3756;DHT22;1893;52.526;13.360;2023-03-01T03:14:51;-1.70;99.90
3756;DHT22;1893;52.526;13.360;2023-03-01T03:17:16;-1.70;99.90
3756;DHT22;1893;52.526;13.360;2023-03-01T03:19:42;-1.80;99.90
3756;DHT22;1893;52.526;13.360;2023-03-01T03:22:11;-1.80;99.90
3756;DHT22;1893;52.526;13.360;2023-03-01T03:24:37;-1.80;99.90
3756;DHT22;1893;52.526;13.360;2023-03-01T03:27:04;-1.90;99.90
3756;DHT22;1893;52.526;13.360;2023-03-01T03:29:30;-1.80;99.90
3756;DHT22;1893;52.526;13.360;2023-03-01T03:31:56;-1.80;99.90
3756;DHT22;1893;52.526;13.360;2023-03-01T03:34:22;-1.80;99.90
3756;DHT22;1893;52.526;13.360;2023-03-01T03:36:52;-1.80;99.90
3756;DHT22;1893;52.526;13.360;2023-03-01T03:39:25;-1.90;99.90
3756;DHT22;1893;52.526;13.360;2023-03-01T03:41:52;-1.80;99.90
3756;DHT22;1893;52.526;13.360;2023-03-01T03:44:18;-1.90;99.90
3756;DHT22;1893;52.526;13.360;2023-03-01T03:46:43;-1.90;99.90
3756;DHT22;1893;52.526;13.360;2023-03-01T03:49:09;-1.90;99.90
3756;DHT22;1893;52.526;13.360;2023-03-01T03:51:34;-1.70;99.90
3756;DHT22;1893;52.526;13.360;2023-03-01T03:54:00;-1.70;99.90
3756;DHT22;1893;52.526;13.360;2023-03-01T03:56:26;-1.70;99.90
3756;DHT22;1893;52.526;13.360;2023-03-01T03:58:52;-1.70;99.90
3756;DHT22;1893;52.526;13.360;2023-03-01T04:01:18;-1.70;99.90
3756;DHT22;1893;52.526;13.360;2023-03-01T04:03:43;-1.80;99.90
3756;DHT22;1893;52.526;13.360;2023-03-01T04:06:14;-1.80;99.90
3756;DHT22;1893;52.526;13.360;2023-03-01T04:08:40;-1.90;99.90
3756;DHT22;1893;52.526;13.360;2023-03-01T04:11:06;-1.80;99.90
3756;DHT22;1893;52.526;13.360;2023-03-01T04:13:52;-1.90;99.90
3756;DHT22;1893;52.526;13.360;2023-03-01T04:16:18;-1.90;99.90
3756;DHT22;1893;52.526;13.360;2023-03-01T04:18:45;-1.80;99.90
3756;DHT22;1893;52.526;13.360;2023-03-01T04:21:11;-1.80;99.90
3756;DHT22;1893;52.526;13.360;2023-03-01T04:23:37;-1.80;99.90
3756;DHT22;1893;52.526;13.360;2023-03-01T04:26:03;-1.80;99.90
3756;DHT22;1893;52.526;13.360;2023-03-01T04:28:39;-1.80;99.90
3756;DHT22;1893;52.526;13.360;2023-03-01T04:31:11;-1.90;99.90
3756;DHT22;1893;52.526;13.360;2023-03-01T04:33:42;-1.80;99.90
3756;DHT22;1893;52.526;13.360;2023-03-01T04:36:09;-1.70;99.90
3756;DHT22;1893;52.526;13.360;2023-03-01T04:38:36;-1.80;99.90
3756;DHT22;1893;52.526;13.360;2023-03-01T04:41:04;-1.90;99.90
3756;DHT22;1893;52.526;13.360;2023-03-01T04:43:30;-1.80;99.90
3756;DHT22;1893;52.526;13.360;2023-03-01T04:46:04;-1.90;99.90
3756;DHT22;1893;52.526;13.360;2023-03-01T04:48:31;-2.00;99.90
3756;DHT22;1893;52.526;13.360;2023-03-01T04:50:59;-2.00;99.90
3756;DHT22;1893;52.526;13.360;2023-03-01T04:53:25;-2.00;99.90
3756;DHT22;1893;52.526;13.360;2023-03-01T04:55:50;-1.90;99.90
3756;DHT22;1893;52.526;13.360;2023-03-01T04:58:16;-2.00;99.90
3756;DHT22;1893;52.526;13.360;2023-03-01T05:00:41;-2.10;99.90
3756;DHT22;1893;52.526;13.360;2023-03-01T05:03:08;-2.10;99.90
3756;DHT22;1893;52.526;13.360;2023-03-01T05:05:36;-2.00;99.90
3756;DHT22;1893;52.526;13.360;2023-03-01T05:08:06;-2.00;99.90
3756;DHT22;1893;52.526;13.360;2023-03-01T05:10:33;-2.10;99.90
3756;DHT22;1893;52.526;13.360;2023-03-01T05:13:00;-2.10;99.90
3756;DHT22;1893;52.526;13.360;2023-03-01T05:15:27;-2.20;99.90
3756;DHT22;1893;52.526;13.360;2023-03-01T05:17:54;-2.20;99.90
3756;DHT22;1893;52.526;13.360;2023-03-01T05:20:21;-2.20;99.90
3756;DHT22;1893;52.526;13.360;2023-03-01T05:22:50;-2.30;99.90
3756;DHT22;1893;52.526;13.360;2023-03-01T05:25:16;-2.30;99.90
3756;DHT22;1893;52.526;13.360;2023-03-01T05:27:42;-2.20;99.90
3756;DHT22;1893;52.526;13.360;2023-03-01T05:30:09;-2.20;99.90
3756;DHT22;1893;52.526;13.360;2023-03-01T05:32:45;-2.30;99.90
3756;DHT22;1893;52.526;13.360;2023-03-01T05:35:13;-2.00;99.90
3756;DHT22;1893;52.526;13.360;2023-03-01T05:37:40;-2.00;99.90
3756;DHT22;1893;52.526;13.360;2023-03-01T05:40:08;-2.00;99.90
3756;DHT22;1893;52.526;13.360;2023-03-01T05:42:44;-1.80;99.90
3756;DHT22;1893;52.526;13.360;2023-03-01T05:45:10;-1.80;99.90
3756;DHT22;1893;52.526;13.360;2023-03-01T05:47:38;-2.00;99.90
3756;DHT22;1893;52.526;13.360;2023-03-01T05:50:05;-2.00;99.90
3756;DHT22;1893;52.526;13.360;2023-03-01T05:52:32;-2.10;99.90
3756;DHT22;1893;52.526;13.360;2023-03-01T05:54:58;-2.10;99.90
3756;DHT22;1893;52.526;13.360;2023-03-01T05:57:23;-2.20;99.90
3756;DHT22;1893;52.526;13.360;2023-03-01T05:59:49;-2.20;99.90
3756;DHT22;1893;52.526;13.360;2023-03-01T06:02:14;-2.30;99.90
3756;DHT22;1893;52.526;13.360;2023-03-01T06:04:40;-2.30;99.90
3756;DHT22;1893;52.526;13.360;2023-03-01T06:07:06;-2.30;99.90
3756;DHT22;1893;52.526;13.360;2023-03-01T06:09:31;-2.30;99.90
3756;DHT22;1893;52.526;13.360;2023-03-01T06:11:57;-2.30;99.90
3756;DHT22;1893;52.526;13.360;2023-03-01T06:14:22;-2.30;99.90
3756;DHT22;1893;52.526;13.360;2023-03-01T06:16:48;-2.30;99.90
3756;DHT22;1893;52.526;13.360;2023-03-01T06:19:13;-2.20;99.90
3756;DHT22;1893;52.526;13.360;2023-03-01T06:21:39;-2.10;99.90
3756;DHT22;1893;52.526;13.360;2023-03-01T06:24:05;-2.20;99.90
3756;DHT22;1893;52.526;13.360;2023-03-01T06:26:32;-2.10;99.90
3756;DHT22;1893;52.526;13.360;2023-03-01T06:28:58;-2.00;99.90
3756;DHT22;1893;52.526;13.360;2023-03-01T06:31:23;-2.00;99.90
3756;DHT22;1893;52.526;13.360;2023-03-01T06:33:49;-2.00;99.90
3756;DHT22;1893;52.526;13.360;2023-03-01T06:36:14;-1.90;99.90
3756;DHT22;1893;52.526;13.360;2023-03-01T06:38:44;-1.90;99.90
3756;DHT22;1893;52.526;13.360;2023-03-01T06:41:09;-1.80;99.90
3756;DHT22;1893;52.526;13.360;2023-03-01T06:43:35;-1.70;99.90
3756;DHT22;1893;52.526;13.360;2023-03-01T06:46:04;-1.60;99.90
3756;DHT22;1893;52.526;13.360;2023-03-01T06:48:30;-1.50;99.90
3756;DHT22;1893;52.526;13.360;2023-03-01T06:50:58;-1.50;99.90
3756;DHT22;1893;52.526;13.360;2023-03-01T06:53:24;-1.40;99.90
3756;DHT22;1893;52.526;13.360;2023-03-01T06:55:57;-1.20;99.90
3756;DHT22;1893;52.526;13.360;2023-03-01T06:58:23;-1.00;99.90
3756;DHT22;1893;52.526;13.360;2023-03-01T07:00:49;-0.70;99.90
3756;DHT22;1893;52.526;13.360;2023-03-01T07:03:14;-0.20;99.90
3756;DHT22;1893;52.526;13.360;2023-03-01T07:05:40;0.20;99.90
3756;DHT22;1893;52.526;13.360;2023-03-01T07:08:05;0.50;99.90
3756;DHT22;1893;52.526;13.360;2023-03-01T07:10:31;0.70;99.90
3756;DHT22;1893;52.526;13.360;2023-03-01T07:12:57;0.80;99.90
3756;DHT22;1893;52.526;13.360;2023-03-01T07:15:24;0.90;99.90
3756;DHT22;1893;52.526;13.360;2023-03-01T07:17:49;1.20;99.90
3756;DHT22;1893;52.526;13.360;2023-03-01T07:20:17;1.40;99.90
3756;DHT22;1893;52.526;13.360;2023-03-01T07:22:43;1.80;99.90
3756;DHT22;1893;52.526;13.360;2023-03-01T07:25:09;2.30;99.90
3756;DHT22;1893;52.526;13.360;2023-03-01T07:27:35;2.50;99.90
3756;DHT22;1893;52.526;13.360;2023-03-01T07:30:01;3.20;99.90
3756;DHT22;1893;52.526;13.360;2023-03-01T07:32:26;3.80;99.90
3756;DHT22;1893;52.526;13.360;2023-03-01T07:34:52;4.00;99.90
3756;DHT22;1893;52.526;13.360;2023-03-01T07:37:17;4.40;99.90
3756;DHT22;1893;52.526;13.360;2023-03-01T07:39:43;4.60;99.90
3756;DHT22;1893;52.526;13.360;2023-03-01T07:42:09;4.80;99.90
3756;DHT22;1893;52.526;13.360;2023-03-01T07:44:34;5.00;99.90
3756;DHT22;1893;52.526;13.360;2023-03-01T07:47:00;4.80;99.90
3756;DHT22;1893;52.526;13.360;2023-03-01T07:49:26;4.70;99.90
3756;DHT22;1893;52.526;13.360;2023-03-01T07:51:52;5.80;99.90
3756;DHT22;1893;52.526;13.360;2023-03-01T07:54:18;5.30;99.90
3756;DHT22;1893;52.526;13.360;2023-03-01T07:56:44;4.90;99.90
3756;DHT22;1893;52.526;13.360;2023-03-01T07:59:09;5.40;99.90
3756;DHT22;1893;52.526;13.360;2023-03-01T08:01:35;5.20;99.90
3756;DHT22;1893;52.526;13.360;2023-03-01T08:04:00;5.20;99.90
3756;DHT22;1893;52.526;13.360;2023-03-01T08:06:27;5.50;99.90
3756;DHT22;1893;52.526;13.360;2023-03-01T08:08:52;4.80;99.90
3756;DHT22;1893;52.526;13.360;2023-03-01T08:11:21;4.90;99.90
3756;DHT22;1893;52.526;13.360;2023-03-01T08:13:49;4.80;99.90
3756;DHT22;1893;52.526;13.360;2023-03-01T08:16:15;4.70;99.90
3756;DHT22;1893;52.526;13.360;2023-03-01T08:18:42;4.40;99.90
3756;DHT22;1893;52.526;13.360;2023-03-01T08:21:14;4.50;99.90
3756;DHT22;1893;52.526;13.360;2023-03-01T08:23:40;5.00;99.90
3756;DHT22;1893;52.526;13.360;2023-03-01T08:26:11;5.10;99.90
3756;DHT22;1893;52.526;13.360;2023-03-01T08:28:38;5.20;99.90
3756;DHT22;1893;52.526;13.360;2023-03-01T08:31:16;5.70;99.90
3756;DHT22;1893;52.526;13.360;2023-03-01T08:33:42;5.50;99.90
3756;DHT22;1893;52.526;13.360;2023-03-01T08:36:08;5.70;99.90
3756;DHT22;1893;52.526;13.360;2023-03-01T08:38:34;5.70;99.90
3756;DHT22;1893;52.526;13.360;2023-03-01T08:41:02;5.80;99.90
3756;DHT22;1893;52.526;13.360;2023-03-01T08:43:28;5.70;99.90
3756;DHT22;1893;52.526;13.360;2023-03-01T08:45:54;5.70;99.90
3756;DHT22;1893;52.526;13.360;2023-03-01T08:48:20;5.70;99.90
3756;DHT22;1893;52.526;13.360;2023-03-01T08:50:46;5.30;99.90
3756;DHT22;1893;52.526;13.360;2023-03-01T08:53:12;5.30;99.90
3756;DHT22;1893;52.526;13.360;2023-03-01T08:55:37;5.20;99.90
3756;DHT22;1893;52.526;13.360;2023-03-01T08:58:03;5.50;99.90
3756;DHT22;1893;52.526;13.360;2023-03-01T09:00:28;6.10;99.90
3756;DHT22;1893;52.526;13.360;2023-03-01T09:02:54;6.10;99.90
3756;DHT22;1893;52.526;13.360;2023-03-01T09:05:20;6.60;99.90
3756;DHT22;1893;52.526;13.360;2023-03-01T09:07:45;8.20;99.90
3756;DHT22;1893;52.526;13.360;2023-03-01T09:10:11;9.20;99.90
3756;DHT22;1893;52.526;13.360;2023-03-01T09:12:36;9.30;99.90
3756;DHT22;1893;52.526;13.360;2023-03-01T09:15:02;9.00;99.90
3756;DHT22;1893;52.526;13.360;2023-03-01T09:17:28;8.80;99.90
3756;DHT22;1893;52.526;13.360;2023-03-01T09:19:53;9.40;99.90
3756;DHT22;1893;52.526;13.360;2023-03-01T09:22:19;9.90;99.90
3756;DHT22;1893;52.526;13.360;2023-03-01T09:24:45;9.40;99.90
3756;DHT22;1893;52.526;13.360;2023-03-01T09:27:10;9.40;99.90
3756;DHT22;1893;52.526;13.360;2023-03-01T09:29:38;8.90;99.90
3756;DHT22;1893;52.526;13.360;2023-03-01T09:32:04;8.20;99.90
3756;DHT22;1893;52.526;13.360;2023-03-01T09:34:29;9.30;99.90
3756;DHT22;1893;52.526;13.360;2023-03-01T09:36:57;9.70;99.90
3756;DHT22;1893;52.526;13.360;2023-03-01T09:39:22;10.20;99.90
3756;DHT22;1893;52.526;13.360;2023-03-01T09:46:56;9.40;99.90
3756;DHT22;1893;52.526;13.360;2023-03-01T09:49:25;9.30;99.90
3756;DHT22;1893;52.526;13.360;2023-03-01T09:52:14;8.40;99.90
3756;DHT22;1893;52.526;13.360;2023-03-01T09:54:46;7.60;99.90
3756;DHT22;1893;52.526;13.360;2023-03-01T09:57:41;7.30;99.90
3756;DHT22;1893;52.526;13.360;2023-03-01T10:00:41;8.60;99.90
3756;DHT22;1893;52.526;13.360;2023-03-01T10:03:17;10.10;99.90
3756;DHT22;1893;52.526;13.360;2023-03-01T10:06:06;11.30;99.90
3756;DHT22;1893;52.526;13.360;2023-03-01T10:08:47;12.00;98.30
3756;DHT22;1893;52.526;13.360;2023-03-01T10:11:25;12.00;96.20
3756;DHT22;1893;52.526;13.360;2023-03-01T10:14:03;11.10;93.80
3756;DHT22;1893;52.526;13.360;2023-03-01T10:16:48;11.10;94.10
3756;DHT22;1893;52.526;13.360;2023-03-01T10:19:24;11.20;93.70
3756;DHT22;1893;52.526;13.360;2023-03-01T10:21:51;10.90;92.80
3756;DHT22;1893;52.526;13.360;2023-03-01T10:24:18;11.40;90.50
3756;DHT22;1893;52.526;13.360;2023-03-01T10:26:57;12.00;90.50
3756;DHT22;1893;52.526;13.360;2023-03-01T10:29:31;11.70;90.50
3756;DHT22;1893;52.526;13.360;2023-03-01T10:32:00;12.00;87.60
3756;DHT22;1893;52.526;13.360;2023-03-01T10:34:34;12.20;87.30
3756;DHT22;1893;52.526;13.360;2023-03-01T10:42:40;12.90;78.20
3756;DHT22;1893;52.526;13.360;2023-03-01T10:45:31;12.70;75.70
3756;DHT22;1893;52.526;13.360;2023-03-01T10:50:40;11.50;67.00
3756;DHT22;1893;52.526;13.360;2023-03-01T10:56:07;12.50;70.70
3756;DHT22;1893;52.526;13.360;2023-03-01T10:58:38;13.20;70.10
3756;DHT22;1893;52.526;13.360;2023-03-01T11:01:24;13.70;69.60
3756;DHT22;1893;52.526;13.360;2023-03-01T11:04:23;14.10;66.50
3756;DHT22;1893;52.526;13.360;2023-03-01T11:06:58;14.40;57.60
3756;DHT22;1893;52.526;13.360;2023-03-01T11:09:24;14.60;55.70
3756;DHT22;1893;52.526;13.360;2023-03-01T11:11:57;15.40;54.40
3756;DHT22;1893;52.526;13.360;2023-03-01T11:14:35;15.90;51.20
3756;DHT22;1893;52.526;13.360;2023-03-01T11:17:30;15.70;46.70
3756;DHT22;1893;52.526;13.360;2023-03-01T11:20:34;16.20;45.80
3756;DHT22;1893;52.526;13.360;2023-03-01T11:23:04;13.50;46.30
3756;DHT22;1893;52.526;13.360;2023-03-01T11:25:36;14.90;48.00
3756;DHT22;1893;52.526;13.360;2023-03-01T11:28:06;14.90;43.70
3756;DHT22;1893;52.526;13.360;2023-03-01T11:33:27;14.50;43.50
3756;DHT22;1893;52.526;13.360;2023-03-01T11:36:25;15.20;40.70
3756;DHT22;1893;52.526;13.360;2023-03-01T11:38:53;16.50;42.10
3756;DHT22;1893;52.526;13.360;2023-03-01T11:41:23;17.50;38.60
3756;DHT22;1893;52.526;13.360;2023-03-01T11:44:09;17.30;35.60
3756;DHT22;1893;52.526;13.360;2023-03-01T11:49:39;16.80;37.20
3756;DHT22;1893;52.526;13.360;2023-03-01T11:57:58;16.10;36.90
3756;DHT22;1893;52.526;13.360;2023-03-01T12:00:47;15.60;34.60
3756;DHT22;1893;52.526;13.360;2023-03-01T12:06:48;15.30;35.60
3756;DHT22;1893;52.526;13.360;2023-03-01T12:09:48;15.60;33.40
3756;DHT22;1893;52.526;13.360;2023-03-01T12:17:40;15.00;30.00
3756;DHT22;1893;52.526;13.360;2023-03-01T12:23:22;15.00;32.80
3756;DHT22;1893;52.526;13.360;2023-03-01T12:35:05;14.60;31.30
3756;DHT22;1893;52.526;13.360;2023-03-01T12:40:03;15.20;33.10
3756;DHT22;1893;52.526;13.360;2023-03-01T12:50:47;16.70;28.00
3756;DHT22;1893;52.526;13.360;2023-03-01T12:53:23;16.80;28.20
3756;DHT22;1893;52.526;13.360;2023-03-01T12:55:51;16.00;28.30
3756;DHT22;1893;52.526;13.360;2023-03-01T12:58:28;14.70;28.50
3756;DHT22;1893;52.526;13.360;2023-03-01T13:12:42;17.00;28.30
3756;DHT22;1893;52.526;13.360;2023-03-01T13:17:50;16.70;28.60
3756;DHT22;1893;52.526;13.360;2023-03-01T13:20:19;16.10;28.70
3756;DHT22;1893;52.526;13.360;2023-03-01T13:22:48;15.70;27.30
3756;DHT22;1893;52.526;13.360;2023-03-01T13:25:25;15.10;27.90
3756;DHT22;1893;52.526;13.360;2023-03-01T13:27:51;15.30;27.80
3756;DHT22;1893;52.526;13.360;2023-03-01T13:33:54;14.40;28.50
3756;DHT22;1893;52.526;13.360;2023-03-01T13:46:52;14.80;29.20
3756;DHT22;1893;52.526;13.360;2023-03-01T13:49:20;14.50;29.40
3756;DHT22;1893;52.526;13.360;2023-03-01T13:51:51;14.70;29.10
3756;DHT22;1893;52.526;13.360;2023-03-01T13:54:27;14.70;28.80
3756;DHT22;1893;52.526;13.360;2023-03-01T13:56:55;14.40;28.10
3756;DHT22;1893;52.526;13.360;2023-03-01T13:59:22;13.80;29.40
3756;DHT22;1893;52.526;13.360;2023-03-01T14:01:53;14.20;28.10
3756;DHT22;1893;52.526;13.360;2023-03-01T14:04:28;14.60;27.60
3756;DHT22;1893;52.526;13.360;2023-03-01T14:07:13;14.40;27.30
3756;DHT22;1893;52.526;13.360;2023-03-01T14:09:45;13.70;26.80
3756;DHT22;1893;52.526;13.360;2023-03-01T14:17:57;14.60;28.20
3756;DHT22;1893;52.526;13.360;2023-03-01T14:20:30;14.10;28.20
3756;DHT22;1893;52.526;13.360;2023-03-01T14:22:59;13.30;30.70
3756;DHT22;1893;52.526;13.360;2023-03-01T14:25:34;13.80;29.90
3756;DHT22;1893;52.526;13.360;2023-03-01T14:28:19;14.30;30.00
3756;DHT22;1893;52.526;13.360;2023-03-01T14:30:51;14.30;30.00
3756;DHT22;1893;52.526;13.360;2023-03-01T14:33:33;14.10;31.40
3756;DHT22;1893;52.526;13.360;2023-03-01T14:36:04;13.80;30.60
3756;DHT22;1893;52.526;13.360;2023-03-01T14:41:00;12.80;32.50
3756;DHT22;1893;52.526;13.360;2023-03-01T14:43:28;12.20;32.10
3756;DHT22;1893;52.526;13.360;2023-03-01T14:45:54;12.00;32.40
3756;DHT22;1893;52.526;13.360;2023-03-01T14:48:20;11.80;33.90
3756;DHT22;1893;52.526;13.360;2023-03-01T14:50:47;11.40;33.60
3756;DHT22;1893;52.526;13.360;2023-03-01T14:53:25;10.80;33.90
3756;DHT22;1893;52.526;13.360;2023-03-01T14:55:59;10.30;35.20
3756;DHT22;1893;52.526;13.360;2023-03-01T14:58:27;9.90;37.40
3756;DHT22;1893;52.526;13.360;2023-03-01T15:00:59;9.60;38.70
3756;DHT22;1893;52.526;13.360;2023-03-01T15:03:32;9.50;40.10
3756;DHT22;1893;52.526;13.360;2023-03-01T15:05:59;9.30;40.30
3756;DHT22;1893;52.526;13.360;2023-03-01T15:08:26;9.20;42.00
3756;DHT22;1893;52.526;13.360;2023-03-01T15:10:59;9.10;40.30
3756;DHT22;1893;52.526;13.360;2023-03-01T15:13:30;9.00;41.60
3756;DHT22;1893;52.526;13.360;2023-03-01T15:16:15;8.90;40.90
3756;DHT22;1893;52.526;13.360;2023-03-01T15:18:50;9.00;40.50
3756;DHT22;1893;52.526;13.360;2023-03-01T15:21:19;8.80;42.10
3756;DHT22;1893;52.526;13.360;2023-03-01T15:23:50;8.70;42.80
3756;DHT22;1893;52.526;13.360;2023-03-01T15:26:32;8.70;42.80
3756;DHT22;1893;52.526;13.360;2023-03-01T15:29:00;8.60;43.00
3756;DHT22;1893;52.526;13.360;2023-03-01T15:31:35;8.50;44.00
3756;DHT22;1893;52.526;13.360;2023-03-01T15:36:44;8.30;44.60
3756;DHT22;1893;52.526;13.360;2023-03-01T15:42:12;8.20;45.70
3756;DHT22;1893;52.526;13.360;2023-03-01T15:44:40;8.20;46.40
3756;DHT22;1893;52.526;13.360;2023-03-01T15:47:40;8.20;45.90
3756;DHT22;1893;52.526;13.360;2023-03-01T15:50:17;8.10;47.40
3756;DHT22;1893;52.526;13.360;2023-03-01T15:52:43;8.10;47.70
3756;DHT22;1893;52.526;13.360;2023-03-01T15:55:18;8.00;46.20
3756;DHT22;1893;52.526;13.360;2023-03-01T15:57:44;8.00;47.00
3756;DHT22;1893;52.526;13.360;2023-03-01T16:00:11;7.90;46.70
3756;DHT22;1893;52.526;13.360;2023-03-01T16:02:39;7.80;46.80
3756;DHT22;1893;52.526;13.360;2023-03-01T16:05:05;7.80;48.10
3756;DHT22;1893;52.526;13.360;2023-03-01T16:07:31;7.80;48.30
3756;DHT22;1893;52.526;13.360;2023-03-01T16:09:57;7.70;48.50
3756;DHT22;1893;52.526;13.360;2023-03-01T16:12:25;7.60;48.10
3756;DHT22;1893;52.526;13.360;2023-03-01T16:14:50;7.50;48.50
3756;DHT22;1893;52.526;13.360;2023-03-01T16:17:18;7.50;49.00
3756;DHT22;1893;52.526;13.360;2023-03-01T16:19:43;7.40;49.60
3756;DHT22;1893;52.526;13.360;2023-03-01T16:22:10;7.40;49.10
3756;DHT22;1893;52.526;13.360;2023-03-01T16:24:35;7.40;49.60
3756;DHT22;1893;52.526;13.360;2023-03-01T16:27:02;7.30;50.20
3756;DHT22;1893;52.526;13.360;2023-03-01T16:29:27;7.30;50.50
3756;DHT22;1893;52.526;13.360;2023-03-01T16:31:54;7.20;50.70
3756;DHT22;1893;52.526;13.360;2023-03-01T16:34:20;7.00;50.80
3756;DHT22;1893;52.526;13.360;2023-03-01T16:36:47;7.00;51.00
3756;DHT22;1893;52.526;13.360;2023-03-01T16:39:12;6.90;51.90
3756;DHT22;1893;52.526;13.360;2023-03-01T16:41:38;6.90;52.30
3756;DHT22;1893;52.526;13.360;2023-03-01T16:44:04;6.70;52.20
3756;DHT22;1893;52.526;13.360;2023-03-01T16:46:29;6.70;53.20
3756;DHT22;1893;52.526;13.360;2023-03-01T16:48:55;6.60;53.20
3756;DHT22;1893;52.526;13.360;2023-03-01T16:51:22;6.60;53.70
3756;DHT22;1893;52.526;13.360;2023-03-01T16:53:49;6.50;53.80
3756;DHT22;1893;52.526;13.360;2023-03-01T16:56:16;6.50;53.90
3756;DHT22;1893;52.526;13.360;2023-03-01T16:58:42;6.30;54.20
3756;DHT22;1893;52.526;13.360;2023-03-01T17:01:11;6.20;54.50
3756;DHT22;1893;52.526;13.360;2023-03-01T17:03:39;6.20;55.60
3756;DHT22;1893;52.526;13.360;2023-03-01T17:06:10;6.10;56.30
3756;DHT22;1893;52.526;13.360;2023-03-01T17:08:37;6.10;56.60
3756;DHT22;1893;52.526;13.360;2023-03-01T17:11:04;6.00;57.00
3756;DHT22;1893;52.526;13.360;2023-03-01T17:13:30;6.00;57.70
3756;DHT22;1893;52.526;13.360;2023-03-01T17:15:56;6.00;58.40
3756;DHT22;1893;52.526;13.360;2023-03-01T17:18:21;5.90;58.70
3756;DHT22;1893;52.526;13.360;2023-03-01T17:20:47;6.00;59.20
3756;DHT22;1893;52.526;13.360;2023-03-01T17:23:13;5.80;59.40
3756;DHT22;1893;52.526;13.360;2023-03-01T17:25:43;5.80;60.40
3756;DHT22;1893;52.526;13.360;2023-03-01T17:28:10;5.70;60.40
3756;DHT22;1893;52.526;13.360;2023-03-01T17:30:36;5.60;62.60
3756;DHT22;1893;52.526;13.360;2023-03-01T17:33:02;5.70;62.30
3756;DHT22;1893;52.526;13.360;2023-03-01T17:35:35;5.50;63.20
3756;DHT22;1893;52.526;13.360;2023-03-01T17:38:03;5.60;64.90
3756;DHT22;1893;52.526;13.360;2023-03-01T17:40:28;5.50;66.10
3756;DHT22;1893;52.526;13.360;2023-03-01T17:42:54;5.50;67.90
3756;DHT22;1893;52.526;13.360;2023-03-01T17:45:21;5.60;68.90
3756;DHT22;1893;52.526;13.360;2023-03-01T17:47:47;5.40;69.10
3756;DHT22;1893;52.526;13.360;2023-03-01T17:50:12;5.40;70.50
3756;DHT22;1893;52.526;13.360;2023-03-01T17:52:38;5.30;71.90
3756;DHT22;1893;52.526;13.360;2023-03-01T17:55:06;5.20;73.50